sensor_id;sensor_type;location;lat;lon;timestamp;P1;durP1;ratioP1;P2;durP2;ratioP2
3597;SDS011;1813;52.016;8.714;2023-10-31T00:00:46;4.10;;;2.33;;
3597;SDS011;1813;52.016;8.714;2023-10-31T00:03:20;2.97;;;2.33;;
3597;SDS011;1813;52.016;8.714;2023-10-31T00:05:54;2.00;;;1.90;;
3597;SDS011;1813;52.016;8.714;2023-10-31T00:08:30;4.53;;;2.53;;
3597;SDS011;1813;52.016;8.714;2023-10-31T00:11:03;2.47;;;2.27;;
3597;SDS011;1813;52.016;8.714;2023-10-31T00:13:37;2.27;;;2.17;;
3597;SDS011;1813;52.016;8.714;2023-10-31T00:16:10;4.47;;;2.20;;
3597;SDS011;1813;52.016;8.714;2023-10-31T00:18:44;2.50;;;2.30;;
3597;SDS011;1813;52.016;8.714;2023-10-31T00:21:18;3.33;;;2.53;;
3597;SDS011;1813;52.016;8.714;2023-10-31T00:23:55;3.40;;;3.10;;
3597;SDS011;1813;52.016;8.714;2023-10-31T00:26:28;3.50;;;3.30;;
3597;SDS011;1813;52.016;8.714;2023-10-31T00:29:02;4.17;;;3.50;;
3597;SDS011;1813;52.016;8.714;2023-10-31T00:31:36;5.83;;;3.80;;
3597;SDS011;1813;52.016;8.714;2023-10-31T00:34:12;4.17;;;3.87;;
3597;SDS011;1813;52.016;8.714;2023-10-31T00:36:45;4.50;;;3.73;;
3597;SDS011;1813;52.016;8.714;2023-10-31T00:39:21;4.60;;;4.20;;
3597;SDS011;1813;52.016;8.714;2023-10-31T00:41:57;8.20;;;4.03;;
3597;SDS011;1813;52.016;8.714;2023-10-31T00:44:31;3.40;;;3.20;;
3597;SDS011;1813;52.016;8.714;2023-10-31T00:47:05;3.97;;;3.67;;
3597;SDS011;1813;52.016;8.714;2023-10-31T00:49:38;4.27;;;3.87;;
3597;SDS011;1813;52.016;8.714;2023-10-31T00:52:19;6.47;;;4.10;;
3597;SDS011;1813;52.016;8.714;2023-10-31T00:54:56;6.00;;;4.47;;
3597;SDS011;1813;52.016;8.714;2023-10-31T00:57:30;4.23;;;3.93;;
3597;SDS011;1813;52.016;8.714;2023-10-31T01:00:05;3.90;;;3.50;;
3597;SDS011;1813;52.016;8.714;2023-10-31T01:02:40;4.27;;;3.80;;
3597;SDS011;1813;52.016;8.714;2023-10-31T01:05:16;4.27;;;4.03;;
3597;SDS011;1813;52.016;8.714;2023-10-31T01:07:51;4.93;;;3.97;;
3597;SDS011;1813;52.016;8.714;2023-10-31T01:10:28;3.87;;;3.57;;
3597;SDS011;1813;52.016;8.714;2023-10-31T01:13:01;4.33;;;4.07;;
3597;SDS011;1813;52.016;8.714;2023-10-31T01:15:35;4.57;;;4.27;;
3597;SDS011;1813;52.016;8.714;2023-10-31T01:18:08;5.63;;;4.20;;
3597;SDS011;1813;52.016;8.714;2023-10-31T01:20:42;4.77;;;4.37;;
3597;SDS011;1813;52.016;8.714;2023-10-31T01:23:16;4.70;;;4.30;;
3597;SDS011;1813;52.016;8.714;2023-10-31T01:25:53;7.30;;;4.83;;
3597;SDS011;1813;52.016;8.714;2023-10-31T01:28:26;5.63;;;5.13;;
3597;SDS011;1813;52.016;8.714;2023-10-31T01:30:59;5.10;;;4.67;;
3597;SDS011;1813;52.016;8.714;2023-10-31T01:33:33;5.17;;;4.87;;
3597;SDS011;1813;52.016;8.714;2023-10-31T01:36:07;5.30;;;4.90;;
3597;SDS011;1813;52.016;8.714;2023-10-31T01:38:42;5.03;;;4.63;;
3597;SDS011;1813;52.016;8.714;2023-10-31T01:41:20;4.30;;;4.00;;
3597;SDS011;1813;52.016;8.714;2023-10-31T01:43:53;4.57;;;4.17;;
3597;SDS011;1813;52.016;8.714;2023-10-31T01:46:27;5.17;;;4.07;;
3597;SDS011;1813;52.016;8.714;2023-10-31T01:49:02;7.37;;;4.03;;
3597;SDS011;1813;52.016;8.714;2023-10-31T01:51:37;5.07;;;3.80;;
3597;SDS011;1813;52.016;8.714;2023-10-31T01:54:12;4.43;;;4.03;;
3597;SDS011;1813;52.016;8.714;2023-10-31T01:56:50;5.10;;;4.60;;
3597;SDS011;1813;52.016;8.714;2023-10-31T01:59:26;6.13;;;4.60;;
3597;SDS011;1813;52.016;8.714;2023-10-31T02:02:01;5.63;;;5.17;;
3597;SDS011;1813;52.016;8.714;2023-10-31T02:04:36;5.73;;;5.33;;
3597;SDS011;1813;52.016;8.714;2023-10-31T02:07:10;6.07;;;5.67;;
3597;SDS011;1813;52.016;8.714;2023-10-31T02:09:44;6.33;;;5.83;;
3597;SDS011;1813;52.016;8.714;2023-10-31T02:15:12;7.80;;;7.10;;
3597;SDS011;1813;52.016;8.714;2023-10-31T02:17:50;8.33;;;7.63;;
3597;SDS011;1813;52.016;8.714;2023-10-31T02:20:24;8.20;;;7.50;;
3597;SDS011;1813;52.016;8.714;2023-10-31T02:23:00;8.20;;;7.50;;
3597;SDS011;1813;52.016;8.714;2023-10-31T02:25:34;8.40;;;7.70;;
3597;SDS011;1813;52.016;8.714;2023-10-31T02:28:08;8.80;;;8.07;;
3597;SDS011;1813;52.016;8.714;2023-10-31T02:30:41;8.00;;;7.40;;
3597;SDS011;1813;52.016;8.714;2023-10-31T02:33:15;8.00;;;7.30;;
3597;SDS011;1813;52.016;8.714;2023-10-31T02:35:51;7.40;;;6.80;;
3597;SDS011;1813;52.016;8.714;2023-10-31T02:38:27;7.13;;;6.40;;
3597;SDS011;1813;52.016;8.714;2023-10-31T02:41:00;5.60;;;5.20;;
3597;SDS011;1813;52.016;8.714;2023-10-31T02:43:34;5.63;;;5.23;;
3597;SDS011;1813;52.016;8.714;2023-10-31T02:46:07;5.30;;;4.90;;
3597;SDS011;1813;52.016;8.714;2023-10-31T02:48:42;5.00;;;4.57;;
3597;SDS011;1813;52.016;8.714;2023-10-31T02:51:16;4.30;;;4.00;;
3597;SDS011;1813;52.016;8.714;2023-10-31T02:53:52;4.90;;;4.60;;
3597;SDS011;1813;52.016;8.714;2023-10-31T02:56:26;3.73;;;3.53;;
3597;SDS011;1813;52.016;8.714;2023-10-31T02:59:00;3.10;;;2.90;;
3597;SDS011;1813;52.016;8.714;2023-10-31T03:01:33;2.93;;;2.83;;
3597;SDS011;1813;52.016;8.714;2023-10-31T03:04:09;3.10;;;3.00;;
3597;SDS011;1813;52.016;8.714;2023-10-31T03:06:43;3.60;;;3.40;;
3597;SDS011;1813;52.016;8.714;2023-10-31T03:09:20;3.30;;;3.10;;
3597;SDS011;1813;52.016;8.714;2023-10-31T03:11:56;3.10;;;2.93;;
3597;SDS011;1813;52.016;8.714;2023-10-31T03:14:29;2.90;;;2.80;;
3597;SDS011;1813;52.016;8.714;2023-10-31T03:17:07;2.70;;;2.60;;
3597;SDS011;1813;52.016;8.714;2023-10-31T03:19:41;2.80;;;2.70;;
3597;SDS011;1813;52.016;8.714;2023-10-31T03:22:15;3.00;;;2.80;;
3597;SDS011;1813;52.016;8.714;2023-10-31T03:24:52;2.70;;;2.60;;
3597;SDS011;1813;52.016;8.714;2023-10-31T03:27:26;2.60;;;2.40;;
3597;SDS011;1813;52.016;8.714;2023-10-31T03:29:59;2.70;;;2.23;;
3597;SDS011;1813;52.016;8.714;2023-10-31T03:32:37;2.10;;;2.00;;
3597;SDS011;1813;52.016;8.714;2023-10-31T03:35:16;1.80;;;1.70;;
3597;SDS011;1813;52.016;8.714;2023-10-31T03:37:49;1.67;;;1.57;;
3597;SDS011;1813;52.016;8.714;2023-10-31T03:40:26;2.00;;;1.87;;
3597;SDS011;1813;52.016;8.714;2023-10-31T03:43:03;1.57;;;1.40;;
3597;SDS011;1813;52.016;8.714;2023-10-31T03:45:37;1.40;;;1.40;;
3597;SDS011;1813;52.016;8.714;2023-10-31T03:48:11;1.40;;;1.40;;
3597;SDS011;1813;52.016;8.714;2023-10-31T03:50:46;2.33;;;1.50;;
3597;SDS011;1813;52.016;8.714;2023-10-31T03:53:23;1.30;;;1.20;;
3597;SDS011;1813;52.016;8.714;2023-10-31T03:56:01;1.47;;;1.30;;
3597;SDS011;1813;52.016;8.714;2023-10-31T03:58:35;1.07;;;1.07;;
3597;SDS011;1813;52.016;8.714;2023-10-31T04:01:12;1.27;;;1.17;;
3597;SDS011;1813;52.016;8.714;2023-10-31T04:03:48;3.10;;;1.20;;
3597;SDS011;1813;52.016;8.714;2023-10-31T04:06:21;1.37;;;1.27;;
3597;SDS011;1813;52.016;8.714;2023-10-31T04:09:04;2.67;;;1.50;;
3597;SDS011;1813;52.016;8.714;2023-10-31T04:11:43;1.47;;;1.37;;
3597;SDS011;1813;52.016;8.714;2023-10-31T04:14:17;1.93;;;1.40;;
3597;SDS011;1813;52.016;8.714;2023-10-31T04:16:50;1.50;;;1.40;;
3597;SDS011;1813;52.016;8.714;2023-10-31T04:19:25;1.83;;;1.60;;
3597;SDS011;1813;52.016;8.714;2023-10-31T04:22:00;2.10;;;1.70;;
3597;SDS011;1813;52.016;8.714;2023-10-31T04:24:51;1.70;;;1.60;;
3597;SDS011;1813;52.016;8.714;2023-10-31T04:27:28;1.73;;;1.73;;
3597;SDS011;1813;52.016;8.714;2023-10-31T04:30:03;2.70;;;2.50;;
3597;SDS011;1813;52.016;8.714;2023-10-31T04:32:37;2.27;;;2.17;;
3597;SDS011;1813;52.016;8.714;2023-10-31T04:35:16;4.07;;;2.47;;
3597;SDS011;1813;52.016;8.714;2023-10-31T04:37:50;3.03;;;2.30;;
3597;SDS011;1813;52.016;8.714;2023-10-31T04:40:23;9.93;;;2.80;;
3597;SDS011;1813;52.016;8.714;2023-10-31T04:43:00;4.40;;;3.03;;
3597;SDS011;1813;52.016;8.714;2023-10-31T04:45:35;2.93;;;2.73;;
3597;SDS011;1813;52.016;8.714;2023-10-31T04:48:10;3.37;;;3.03;;
3597;SDS011;1813;52.016;8.714;2023-10-31T04:50:46;4.27;;;3.40;;
3597;SDS011;1813;52.016;8.714;2023-10-31T04:53:19;6.57;;;4.03;;
3597;SDS011;1813;52.016;8.714;2023-10-31T04:55:53;4.13;;;3.70;;
3597;SDS011;1813;52.016;8.714;2023-10-31T04:58:31;4.90;;;4.23;;
3597;SDS011;1813;52.016;8.714;2023-10-31T05:01:07;4.37;;;3.97;;
3597;SDS011;1813;52.016;8.714;2023-10-31T05:03:41;5.07;;;4.40;;
3597;SDS011;1813;52.016;8.714;2023-10-31T05:06:18;4.80;;;4.40;;
3597;SDS011;1813;52.016;8.714;2023-10-31T05:08:53;6.70;;;4.90;;
3597;SDS011;1813;52.016;8.714;2023-10-31T05:11:27;6.17;;;4.90;;
3597;SDS011;1813;52.016;8.714;2023-10-31T05:14:03;9.17;;;6.53;;
3597;SDS011;1813;52.016;8.714;2023-10-31T05:16:42;8.87;;;5.70;;
3597;SDS011;1813;52.016;8.714;2023-10-31T05:19:17;7.00;;;6.30;;
3597;SDS011;1813;52.016;8.714;2023-10-31T05:21:50;9.00;;;6.70;;
3597;SDS011;1813;52.016;8.714;2023-10-31T05:24:24;9.57;;;7.63;;
3597;SDS011;1813;52.016;8.714;2023-10-31T05:26:57;9.83;;;7.57;;
3597;SDS011;1813;52.016;8.714;2023-10-31T05:29:34;8.90;;;7.43;;
3597;SDS011;1813;52.016;8.714;2023-10-31T05:32:13;8.60;;;7.70;;
3597;SDS011;1813;52.016;8.714;2023-10-31T05:34:46;13.13;;;7.23;;
3597;SDS011;1813;52.016;8.714;2023-10-31T05:37:19;11.60;;;8.00;;
3597;SDS011;1813;52.016;8.714;2023-10-31T05:39:53;8.80;;;7.63;;
3597;SDS011;1813;52.016;8.714;2023-10-31T05:42:27;8.40;;;7.50;;
3597;SDS011;1813;52.016;8.714;2023-10-31T05:45:04;10.00;;;7.07;;
3597;SDS011;1813;52.016;8.714;2023-10-31T05:47:45;9.27;;;6.30;;
3597;SDS011;1813;52.016;8.714;2023-10-31T05:50:18;6.40;;;5.80;;
3597;SDS011;1813;52.016;8.714;2023-10-31T05:52:55;11.23;;;6.40;;
3597;SDS011;1813;52.016;8.714;2023-10-31T05:55:28;12.07;;;6.87;;
3597;SDS011;1813;52.016;8.714;2023-10-31T05:58:03;9.87;;;8.83;;
3597;SDS011;1813;52.016;8.714;2023-10-31T06:00:40;15.33;;;9.47;;
3597;SDS011;1813;52.016;8.714;2023-10-31T06:03:13;15.97;;;10.97;;
3597;SDS011;1813;52.016;8.714;2023-10-31T06:05:47;15.77;;;11.40;;
3597;SDS011;1813;52.016;8.714;2023-10-31T06:08:22;18.30;;;12.23;;
3597;SDS011;1813;52.016;8.714;2023-10-31T06:10:58;16.37;;;12.20;;
3597;SDS011;1813;52.016;8.714;2023-10-31T06:13:32;15.80;;;13.23;;
3597;SDS011;1813;52.016;8.714;2023-10-31T06:16:09;19.37;;;14.13;;
3597;SDS011;1813;52.016;8.714;2023-10-31T06:18:42;18.83;;;14.00;;
3597;SDS011;1813;52.016;8.714;2023-10-31T06:21:15;21.97;;;14.43;;
3597;SDS011;1813;52.016;8.714;2023-10-31T06:23:50;21.87;;;15.03;;
3597;SDS011;1813;52.016;8.714;2023-10-31T06:26:23;21.10;;;14.47;;
3597;SDS011;1813;52.016;8.714;2023-10-31T06:28:59;22.17;;;14.03;;
3597;SDS011;1813;52.016;8.714;2023-10-31T06:31:39;19.53;;;14.60;;
3597;SDS011;1813;52.016;8.714;2023-10-31T06:34:15;21.87;;;15.73;;
3597;SDS011;1813;52.016;8.714;2023-10-31T06:36:52;19.13;;;15.17;;
3597;SDS011;1813;52.016;8.714;2023-10-31T06:39:26;20.33;;;15.10;;
3597;SDS011;1813;52.016;8.714;2023-10-31T06:44:44;20.90;;;15.57;;
3597;SDS011;1813;52.016;8.714;2023-10-31T06:47:20;23.80;;;15.93;;
3597;SDS011;1813;52.016;8.714;2023-10-31T06:49:53;22.77;;;16.20;;
3597;SDS011;1813;52.016;8.714;2023-10-31T06:52:27;23.23;;;16.53;;
3597;SDS011;1813;52.016;8.714;2023-10-31T06:55:00;22.77;;;16.33;;
3597;SDS011;1813;52.016;8.714;2023-10-31T06:57:34;22.70;;;14.20;;
3597;SDS011;1813;52.016;8.714;2023-10-31T07:00:10;19.77;;;13.77;;
3597;SDS011;1813;52.016;8.714;2023-10-31T07:02:49;18.93;;;13.30;;
3597;SDS011;1813;52.016;8.714;2023-10-31T07:05:22;17.17;;;13.23;;
3597;SDS011;1813;52.016;8.714;2023-10-31T07:07:55;20.43;;;14.30;;
3597;SDS011;1813;52.016;8.714;2023-10-31T07:10:29;20.97;;;13.83;;
3597;SDS011;1813;52.016;8.714;2023-10-31T07:13:03;18.60;;;13.90;;
3597;SDS011;1813;52.016;8.714;2023-10-31T07:15:36;21.73;;;14.03;;
3597;SDS011;1813;52.016;8.714;2023-10-31T07:18:12;19.13;;;13.00;;
3597;SDS011;1813;52.016;8.714;2023-10-31T07:20:46;18.93;;;13.30;;
3597;SDS011;1813;52.016;8.714;2023-10-31T07:23:19;16.23;;;12.83;;
3597;SDS011;1813;52.016;8.714;2023-10-31T07:25:54;18.83;;;13.30;;
3597;SDS011;1813;52.016;8.714;2023-10-31T07:28:35;17.90;;;13.00;;
3597;SDS011;1813;52.016;8.714;2023-10-31T07:31:09;17.47;;;12.40;;
3597;SDS011;1813;52.016;8.714;2023-10-31T07:33:48;16.10;;;12.37;;
3597;SDS011;1813;52.016;8.714;2023-10-31T07:36:21;23.37;;;12.10;;
3597;SDS011;1813;52.016;8.714;2023-10-31T07:38:55;18.63;;;12.37;;
3597;SDS011;1813;52.016;8.714;2023-10-31T07:41:29;17.27;;;12.73;;
3597;SDS011;1813;52.016;8.714;2023-10-31T07:44:03;15.00;;;11.20;;
3597;SDS011;1813;52.016;8.714;2023-10-31T07:46:36;15.60;;;10.43;;
3597;SDS011;1813;52.016;8.714;2023-10-31T07:49:14;10.13;;;7.90;;
3597;SDS011;1813;52.016;8.714;2023-10-31T07:51:47;11.23;;;7.93;;
3597;SDS011;1813;52.016;8.714;2023-10-31T07:54:21;8.77;;;6.50;;
3597;SDS011;1813;52.016;8.714;2023-10-31T07:56:54;5.77;;;5.23;;
3597;SDS011;1813;52.016;8.714;2023-10-31T07:59:28;6.27;;;5.10;;
3597;SDS011;1813;52.016;8.714;2023-10-31T08:02:06;5.20;;;4.70;;
3597;SDS011;1813;52.016;8.714;2023-10-31T08:04:42;6.77;;;4.60;;
3597;SDS011;1813;52.016;8.714;2023-10-31T08:07:15;4.00;;;3.67;;
3597;SDS011;1813;52.016;8.714;2023-10-31T08:09:49;4.30;;;3.30;;
3597;SDS011;1813;52.016;8.714;2023-10-31T08:12:22;3.50;;;3.20;;
3597;SDS011;1813;52.016;8.714;2023-10-31T08:14:57;3.20;;;2.50;;
3597;SDS011;1813;52.016;8.714;2023-10-31T08:17:31;2.60;;;2.50;;
3597;SDS011;1813;52.016;8.714;2023-10-31T08:20:08;2.90;;;2.73;;
3597;SDS011;1813;52.016;8.714;2023-10-31T08:22:43;2.53;;;2.43;;
3597;SDS011;1813;52.016;8.714;2023-10-31T08:25:18;3.17;;;2.87;;
3597;SDS011;1813;52.016;8.714;2023-10-31T08:27:52;2.40;;;2.30;;
3597;SDS011;1813;52.016;8.714;2023-10-31T08:30:28;2.90;;;2.70;;
3597;SDS011;1813;52.016;8.714;2023-10-31T08:33:01;2.70;;;2.50;;
3597;SDS011;1813;52.016;8.714;2023-10-31T08:35:38;2.57;;;2.40;;
3597;SDS011;1813;52.016;8.714;2023-10-31T08:38:12;2.27;;;2.17;;
3597;SDS011;1813;52.016;8.714;2023-10-31T08:40:47;2.87;;;2.77;;
3597;SDS011;1813;52.016;8.714;2023-10-31T08:43:20;2.77;;;2.57;;
3597;SDS011;1813;52.016;8.714;2023-10-31T08:45:54;2.87;;;2.67;;
3597;SDS011;1813;52.016;8.714;2023-10-31T08:48:28;3.57;;;3.27;;
3597;SDS011;1813;52.016;8.714;2023-10-31T08:51:04;3.80;;;3.50;;
3597;SDS011;1813;52.016;8.714;2023-10-31T08:53:38;2.97;;;2.67;;
3597;SDS011;1813;52.016;8.714;2023-10-31T08:56:11;3.23;;;3.00;;
3597;SDS011;1813;52.016;8.714;2023-10-31T08:58:45;4.23;;;2.80;;
3597;SDS011;1813;52.016;8.714;2023-10-31T09:01:18;3.90;;;2.83;;
3597;SDS011;1813;52.016;8.714;2023-10-31T09:03:55;3.13;;;2.93;;
3597;SDS011;1813;52.016;8.714;2023-10-31T09:06:31;3.60;;;3.30;;
3597;SDS011;1813;52.016;8.714;2023-10-31T09:09:05;3.20;;;2.90;;
3597;SDS011;1813;52.016;8.714;2023-10-31T09:11:40;3.97;;;2.97;;
3597;SDS011;1813;52.016;8.714;2023-10-31T09:14:14;5.33;;;3.43;;
3597;SDS011;1813;52.016;8.714;2023-10-31T09:16:48;4.30;;;3.23;;
3597;SDS011;1813;52.016;8.714;2023-10-31T09:19:21;5.00;;;3.10;;
3597;SDS011;1813;52.016;8.714;2023-10-31T09:21:58;4.27;;;3.70;;
3597;SDS011;1813;52.016;8.714;2023-10-31T09:24:32;3.80;;;3.50;;
3597;SDS011;1813;52.016;8.714;2023-10-31T09:27:07;5.93;;;2.90;;
3597;SDS011;1813;52.016;8.714;2023-10-31T09:29:40;8.77;;;4.10;;
3597;SDS011;1813;52.016;8.714;2023-10-31T09:32:15;5.17;;;4.10;;
3597;SDS011;1813;52.016;8.714;2023-10-31T09:34:50;5.73;;;4.40;;
3597;SDS011;1813;52.016;8.714;2023-10-31T09:37:28;4.53;;;4.20;;
3597;SDS011;1813;52.016;8.714;2023-10-31T09:40:07;5.00;;;4.50;;
3597;SDS011;1813;52.016;8.714;2023-10-31T09:42:45;5.37;;;4.87;;
3597;SDS011;1813;52.016;8.714;2023-10-31T09:45:21;6.67;;;4.90;;
3597;SDS011;1813;52.016;8.714;2023-10-31T09:47:56;8.47;;;5.70;;
3597;SDS011;1813;52.016;8.714;2023-10-31T09:50:36;8.37;;;5.50;;
3597;SDS011;1813;52.016;8.714;2023-10-31T09:53:13;7.70;;;6.13;;
3597;SDS011;1813;52.016;8.714;2023-10-31T09:55:47;9.80;;;6.40;;
3597;SDS011;1813;52.016;8.714;2023-10-31T09:58:21;10.50;;;6.67;;
3597;SDS011;1813;52.016;8.714;2023-10-31T10:00:55;8.03;;;7.07;;
3597;SDS011;1813;52.016;8.714;2023-10-31T10:03:30;11.00;;;7.43;;
3597;SDS011;1813;52.016;8.714;2023-10-31T10:06:08;12.10;;;7.90;;
3597;SDS011;1813;52.016;8.714;2023-10-31T10:08:46;10.83;;;8.27;;
3597;SDS011;1813;52.016;8.714;2023-10-31T10:11:23;11.80;;;7.87;;
3597;SDS011;1813;52.016;8.714;2023-10-31T10:14:00;12.40;;;8.90;;
3597;SDS011;1813;52.016;8.714;2023-10-31T10:16:33;16.97;;;9.60;;
3597;SDS011;1813;52.016;8.714;2023-10-31T10:19:15;14.97;;;10.73;;
3597;SDS011;1813;52.016;8.714;2023-10-31T10:21:53;13.20;;;9.73;;
3597;SDS011;1813;52.016;8.714;2023-10-31T10:24:31;11.10;;;9.30;;
3597;SDS011;1813;52.016;8.714;2023-10-31T10:27:11;12.37;;;9.27;;
3597;SDS011;1813;52.016;8.714;2023-10-31T10:29:45;14.80;;;10.30;;
3597;SDS011;1813;52.016;8.714;2023-10-31T10:32:19;13.50;;;9.80;;
3597;SDS011;1813;52.016;8.714;2023-10-31T10:34:57;14.50;;;10.47;;
3597;SDS011;1813;52.016;8.714;2023-10-31T10:37:30;16.67;;;10.97;;
3597;SDS011;1813;52.016;8.714;2023-10-31T10:40:11;16.80;;;11.20;;
3597;SDS011;1813;52.016;8.714;2023-10-31T10:42:46;19.30;;;12.20;;
3597;SDS011;1813;52.016;8.714;2023-10-31T10:45:21;16.17;;;11.40;;
3597;SDS011;1813;52.016;8.714;2023-10-31T10:47:55;14.27;;;11.17;;
3597;SDS011;1813;52.016;8.714;2023-10-31T10:50:34;16.47;;;12.10;;
3597;SDS011;1813;52.016;8.714;2023-10-31T10:53:14;17.83;;;11.50;;
3597;SDS011;1813;52.016;8.714;2023-10-31T10:55:59;15.17;;;10.90;;
3597;SDS011;1813;52.016;8.714;2023-10-31T10:58:37;12.77;;;10.43;;
3597;SDS011;1813;52.016;8.714;2023-10-31T11:01:22;14.70;;;11.23;;
3597;SDS011;1813;52.016;8.714;2023-10-31T11:03:59;15.00;;;11.13;;
3597;SDS011;1813;52.016;8.714;2023-10-31T11:06:33;15.27;;;11.87;;
3597;SDS011;1813;52.016;8.714;2023-10-31T11:09:09;17.17;;;11.57;;
3597;SDS011;1813;52.016;8.714;2023-10-31T11:11:46;13.70;;;10.17;;
3597;SDS011;1813;52.016;8.714;2023-10-31T11:14:23;12.10;;;9.80;;
3597;SDS011;1813;52.016;8.714;2023-10-31T11:16:59;13.37;;;11.03;;
3597;SDS011;1813;52.016;8.714;2023-10-31T11:19:40;14.93;;;11.53;;
3597;SDS011;1813;52.016;8.714;2023-10-31T11:22:13;13.57;;;11.30;;
3597;SDS011;1813;52.016;8.714;2023-10-31T11:24:52;13.83;;;11.20;;
3597;SDS011;1813;52.016;8.714;2023-10-31T11:27:27;14.10;;;11.87;;
3597;SDS011;1813;52.016;8.714;2023-10-31T11:30:27;15.73;;;12.37;;
3597;SDS011;1813;52.016;8.714;2023-10-31T11:33:04;12.90;;;10.83;;
3597;SDS011;1813;52.016;8.714;2023-10-31T11:35:38;15.93;;;11.87;;
3597;SDS011;1813;52.016;8.714;2023-10-31T11:38:17;12.57;;;10.70;;
3597;SDS011;1813;52.016;8.714;2023-10-31T11:41:08;13.87;;;11.43;;
3597;SDS011;1813;52.016;8.714;2023-10-31T11:43:53;15.67;;;12.40;;
3597;SDS011;1813;52.016;8.714;2023-10-31T11:46:30;17.13;;;13.33;;
3597;SDS011;1813;52.016;8.714;2023-10-31T11:49:03;15.50;;;13.80;;
3597;SDS011;1813;52.016;8.714;2023-10-31T11:51:37;15.23;;;13.40;;
3597;SDS011;1813;52.016;8.714;2023-10-31T11:54:10;15.87;;;13.53;;
3597;SDS011;1813;52.016;8.714;2023-10-31T11:56:50;19.07;;;15.40;;
3597;SDS011;1813;52.016;8.714;2023-10-31T11:59:28;16.87;;;14.93;;
3597;SDS011;1813;52.016;8.714;2023-10-31T12:02:13;16.13;;;14.40;;
3597;SDS011;1813;52.016;8.714;2023-10-31T12:04:49;17.00;;;15.13;;
3597;SDS011;1813;52.016;8.714;2023-10-31T12:07:24;16.20;;;14.50;;
3597;SDS011;1813;52.016;8.714;2023-10-31T12:10:01;18.33;;;14.13;;
3597;SDS011;1813;52.016;8.714;2023-10-31T12:12:38;18.23;;;14.70;;
3597;SDS011;1813;52.016;8.714;2023-10-31T12:15:15;18.90;;;15.93;;
3597;SDS011;1813;52.016;8.714;2023-10-31T12:17:57;16.80;;;14.97;;
3597;SDS011;1813;52.016;8.714;2023-10-31T12:20:31;18.97;;;15.70;;
3597;SDS011;1813;52.016;8.714;2023-10-31T12:23:04;20.90;;;15.50;;
3597;SDS011;1813;52.016;8.714;2023-10-31T12:25:47;16.73;;;14.47;;
3597;SDS011;1813;52.016;8.714;2023-10-31T12:28:26;22.40;;;16.73;;
3597;SDS011;1813;52.016;8.714;2023-10-31T12:31:06;22.20;;;16.60;;
3597;SDS011;1813;52.016;8.714;2023-10-31T12:33:48;20.80;;;16.70;;
3597;SDS011;1813;52.016;8.714;2023-10-31T12:36:26;22.03;;;18.23;;
3597;SDS011;1813;52.016;8.714;2023-10-31T12:39:01;21.03;;;18.33;;
3597;SDS011;1813;52.016;8.714;2023-10-31T12:41:44;23.50;;;18.00;;
3597;SDS011;1813;52.016;8.714;2023-10-31T12:44:20;19.40;;;16.90;;
3597;SDS011;1813;52.016;8.714;2023-10-31T12:47:00;20.53;;;15.03;;
3597;SDS011;1813;52.016;8.714;2023-10-31T12:49:34;20.60;;;14.00;;
3597;SDS011;1813;52.016;8.714;2023-10-31T12:55:02;20.50;;;13.13;;
3597;SDS011;1813;52.016;8.714;2023-10-31T12:57:45;16.07;;;13.47;;
3597;SDS011;1813;52.016;8.714;2023-10-31T13:00:29;18.13;;;14.00;;
3597;SDS011;1813;52.016;8.714;2023-10-31T13:03:08;18.90;;;15.10;;
3597;SDS011;1813;52.016;8.714;2023-10-31T13:05:45;22.87;;;15.87;;
3597;SDS011;1813;52.016;8.714;2023-10-31T13:08:22;19.73;;;16.60;;
3597;SDS011;1813;52.016;8.714;2023-10-31T13:11:04;21.83;;;17.57;;
3597;SDS011;1813;52.016;8.714;2023-10-31T13:13:38;20.93;;;17.13;;
3597;SDS011;1813;52.016;8.714;2023-10-31T13:16:14;21.63;;;17.17;;
3597;SDS011;1813;52.016;8.714;2023-10-31T13:18:50;23.47;;;17.10;;
3597;SDS011;1813;52.016;8.714;2023-10-31T13:21:28;20.53;;;17.03;;
3597;SDS011;1813;52.016;8.714;2023-10-31T13:24:02;20.77;;;17.73;;
3597;SDS011;1813;52.016;8.714;2023-10-31T13:26:38;23.80;;;17.40;;
3597;SDS011;1813;52.016;8.714;2023-10-31T13:29:15;22.40;;;17.50;;
3597;SDS011;1813;52.016;8.714;2023-10-31T13:31:51;24.40;;;17.63;;
3597;SDS011;1813;52.016;8.714;2023-10-31T13:34:28;24.50;;;17.47;;
3597;SDS011;1813;52.016;8.714;2023-10-31T13:37:03;18.50;;;16.60;;
3597;SDS011;1813;52.016;8.714;2023-10-31T13:39:38;17.90;;;15.93;;
3597;SDS011;1813;52.016;8.714;2023-10-31T13:42:12;21.23;;;15.93;;
3597;SDS011;1813;52.016;8.714;2023-10-31T13:44:46;22.20;;;16.70;;
3597;SDS011;1813;52.016;8.714;2023-10-31T13:47:19;29.13;;;16.10;;
3597;SDS011;1813;52.016;8.714;2023-10-31T13:50:00;21.53;;;15.70;;
3597;SDS011;1813;52.016;8.714;2023-10-31T13:52:35;22.97;;;15.30;;
3597;SDS011;1813;52.016;8.714;2023-10-31T13:55:09;22.30;;;15.27;;
3597;SDS011;1813;52.016;8.714;2023-10-31T13:57:42;23.20;;;16.53;;
3597;SDS011;1813;52.016;8.714;2023-10-31T14:00:17;21.63;;;14.70;;
3597;SDS011;1813;52.016;8.714;2023-10-31T14:02:53;23.37;;;15.77;;
3597;SDS011;1813;52.016;8.714;2023-10-31T14:05:30;23.90;;;16.53;;
3597;SDS011;1813;52.016;8.714;2023-10-31T14:08:04;23.43;;;16.87;;
3597;SDS011;1813;52.016;8.714;2023-10-31T14:10:38;25.13;;;19.27;;
3597;SDS011;1813;52.016;8.714;2023-10-31T14:13:17;26.57;;;20.83;;
3597;SDS011;1813;52.016;8.714;2023-10-31T14:15:54;29.13;;;20.60;;
3597;SDS011;1813;52.016;8.714;2023-10-31T14:18:33;24.70;;;19.40;;
3597;SDS011;1813;52.016;8.714;2023-10-31T14:21:11;21.00;;;17.60;;
3597;SDS011;1813;52.016;8.714;2023-10-31T14:23:47;21.20;;;17.10;;
3597;SDS011;1813;52.016;8.714;2023-10-31T14:26:26;22.00;;;15.37;;
3597;SDS011;1813;52.016;8.714;2023-10-31T14:28:59;22.20;;;16.63;;
3597;SDS011;1813;52.016;8.714;2023-10-31T14:31:41;23.07;;;15.80;;
3597;SDS011;1813;52.016;8.714;2023-10-31T14:34:15;24.90;;;17.00;;
3597;SDS011;1813;52.016;8.714;2023-10-31T14:36:52;26.43;;;18.77;;
3597;SDS011;1813;52.016;8.714;2023-10-31T14:39:25;26.17;;;18.30;;
3597;SDS011;1813;52.016;8.714;2023-10-31T14:41:59;26.63;;;19.27;;
3597;SDS011;1813;52.016;8.714;2023-10-31T14:44:33;28.57;;;18.87;;
3597;SDS011;1813;52.016;8.714;2023-10-31T14:47:06;32.40;;;19.03;;
3597;SDS011;1813;52.016;8.714;2023-10-31T14:49:40;27.50;;;19.27;;
3597;SDS011;1813;52.016;8.714;2023-10-31T14:52:16;29.33;;;18.40;;
3597;SDS011;1813;52.016;8.714;2023-10-31T14:54:49;24.63;;;18.30;;
3597;SDS011;1813;52.016;8.714;2023-10-31T14:57:23;26.57;;;18.30;;
3597;SDS011;1813;52.016;8.714;2023-10-31T14:59:56;25.53;;;17.77;;
3597;SDS011;1813;52.016;8.714;2023-10-31T15:02:30;24.20;;;17.63;;
3597;SDS011;1813;52.016;8.714;2023-10-31T15:05:08;26.43;;;18.57;;
3597;SDS011;1813;52.016;8.714;2023-10-31T15:07:44;34.60;;;18.50;;
3597;SDS011;1813;52.016;8.714;2023-10-31T15:10:23;26.03;;;18.00;;
3597;SDS011;1813;52.016;8.714;2023-10-31T15:12:59;35.07;;;19.63;;
3597;SDS011;1813;52.016;8.714;2023-10-31T15:15:34;35.47;;;19.50;;
3597;SDS011;1813;52.016;8.714;2023-10-31T15:18:10;27.57;;;18.20;;
3597;SDS011;1813;52.016;8.714;2023-10-31T15:20:43;26.37;;;18.07;;
3597;SDS011;1813;52.016;8.714;2023-10-31T15:23:19;25.93;;;17.93;;
3597;SDS011;1813;52.016;8.714;2023-10-31T15:25:56;30.60;;;18.43;;
3597;SDS011;1813;52.016;8.714;2023-10-31T15:28:31;28.80;;;17.57;;
3597;SDS011;1813;52.016;8.714;2023-10-31T15:31:04;25.93;;;16.90;;
3597;SDS011;1813;52.016;8.714;2023-10-31T15:33:42;27.77;;;15.97;;
3597;SDS011;1813;52.016;8.714;2023-10-31T15:36:15;28.30;;;15.50;;
3597;SDS011;1813;52.016;8.714;2023-10-31T15:38:52;23.33;;;14.03;;
3597;SDS011;1813;52.016;8.714;2023-10-31T15:41:25;23.90;;;12.97;;
3597;SDS011;1813;52.016;8.714;2023-10-31T15:43:59;23.13;;;13.30;;
3597;SDS011;1813;52.016;8.714;2023-10-31T15:46:34;17.93;;;11.87;;
3597;SDS011;1813;52.016;8.714;2023-10-31T15:49:08;21.63;;;12.07;;
3597;SDS011;1813;52.016;8.714;2023-10-31T15:51:41;19.43;;;11.33;;
3597;SDS011;1813;52.016;8.714;2023-10-31T15:54:20;18.83;;;12.03;;
3597;SDS011;1813;52.016;8.714;2023-10-31T15:56:56;20.80;;;12.00;;
3597;SDS011;1813;52.016;8.714;2023-10-31T15:59:30;18.70;;;12.07;;
3597;SDS011;1813;52.016;8.714;2023-10-31T16:02:07;20.13;;;11.97;;